Decoded Metar for LFBY (DAX in FRANCE) (IATA:N/A) | Meteo·Mobile Aviation Weather
aviador You're here:

LFBY Decoded Metar

DAX in FRANCE
Report Time2018-11-21 18:30:00
UTC Time2018-11-21 18:42:33
Flight Rules mvfr MVFR
Wind100° at 03 kt
W.Decomp.*RWY 08: 2.8 kt HW 1.0 kt RCW
W.Rank100° ranks 7
Current wind is below 100° avg. (4.6)
Visibility5000 m
Phenomena:N/A
Clouds:N/A
Expected CloudBase > 800 ft AGL from Temp-Dew spread
CeilingNone
Temp09°C (ISA -6)
Dew Point07°C (87% RH)
AAT7.2°C
QNH1011 hPa
Density Alt-384 ft
Elevation105 ft
Report Wrong Elevation
Raw Report
METAR LFBY 211830Z AUTO 10003KT 5000 // ////// 09/07 Q1011=

Extra information for LFBY:More info

Metar Taf Metar & Taf Last 4 Metars F.Rules Stats Wind Profile Meteogram Temp Stats Airport Information Weather charts Add Link Nearby VenuesMetar ALERT Operation Metar Decoded Social comments